createdAt,value
2022-12-22T00:00:21.909Z,39.45
2022-12-22T00:03:09.119Z,28.92
2022-12-22T00:05:56.643Z,29.52
2022-12-22T00:08:43.640Z,32.63
2022-12-22T00:11:31.671Z,28.52
2022-12-22T00:14:18.554Z,31.13
2022-12-22T00:17:06.482Z,30.65
2022-12-22T00:19:53.988Z,28.33
2022-12-22T00:22:45.033Z,31.23
2022-12-22T00:25:34.596Z,27.90
2022-12-22T00:28:30.606Z,31.50
2022-12-22T00:31:17.324Z,28.95
2022-12-22T00:34:04.372Z,42.10
2022-12-22T00:36:50.807Z,47.50
2022-12-22T00:39:37.748Z,34.67
2022-12-22T00:42:24.265Z,35.70
2022-12-22T00:45:11.035Z,32.80
2022-12-22T00:47:58.581Z,27.35
2022-12-22T00:50:53.803Z,27.92
2022-12-22T00:53:41.213Z,30.92
2022-12-22T00:56:29.088Z,30.92
2022-12-22T00:59:17.868Z,33.33
2022-12-22T01:02:05.238Z,43.58
2022-12-22T01:04:51.974Z,33.70
2022-12-22T01:07:41.859Z,34.13
2022-12-22T01:10:33.106Z,29.73
2022-12-22T01:13:20.580Z,30.67
2022-12-22T01:16:07.418Z,28.90
2022-12-22T01:18:53.779Z,27.35
2022-12-22T01:21:40.712Z,30.10
2022-12-22T01:24:31.926Z,30.30
2022-12-22T01:27:18.979Z,31.92
2022-12-22T01:30:05.441Z,32.67
2022-12-22T01:32:51.961Z,31.13
2022-12-22T01:35:45.581Z,35.67
2022-12-22T01:38:32.223Z,33.10
2022-12-22T01:41:20.401Z,37.22
2022-12-22T01:44:09.217Z,38.17
2022-12-22T01:47:03.635Z,31.63
2022-12-22T01:50:02.629Z,33.10
2022-12-22T01:52:54.139Z,39.42
2022-12-22T01:55:43.873Z,41.47
2022-12-22T01:58:45.500Z,37.15
2022-12-22T02:01:32.562Z,35.20
2022-12-22T02:04:20.542Z,36.58
2022-12-22T02:07:10.431Z,39.35
2022-12-22T02:10:16.910Z,34.33
2022-12-22T02:13:28.576Z,32.20
2022-12-22T02:16:57.856Z,28.30
2022-12-22T02:20:26.521Z,33.00
2022-12-22T02:23:40.584Z,28.02
2022-12-22T02:26:43.226Z,25.92
2022-12-22T02:29:32.375Z,27.25
2022-12-22T02:32:19.318Z,27.95
2022-12-22T02:35:06.148Z,29.70
2022-12-22T02:38:14.938Z,27.75
2022-12-22T02:41:06.649Z,26.50
2022-12-22T02:44:05.169Z,31.50
2022-12-22T02:47:11.326Z,37.47
2022-12-22T02:50:04.968Z,32.50
2022-12-22T02:52:56.396Z,30.98
2022-12-22T02:55:44.216Z,29.85
2022-12-22T02:58:32.183Z,39.53
2022-12-22T03:01:20.900Z,34.35
2022-12-22T03:04:08.017Z,35.95
2022-12-22T03:06:54.320Z,34.55
2022-12-22T03:09:40.949Z,39.03
2022-12-22T03:12:27.701Z,42.10
2022-12-22T03:15:14.792Z,38.88
2022-12-22T03:18:01.290Z,34.80
2022-12-22T03:20:47.953Z,35.17
2022-12-22T03:23:34.732Z,34.00
2022-12-22T03:26:02.938Z,36.30
2022-12-22T03:28:31.583Z,33.63
2022-12-22T03:31:05.998Z,30.83
2022-12-22T03:33:34.780Z,32.95
2022-12-22T03:36:03.195Z,30.38
2022-12-22T03:38:31.886Z,32.60
2022-12-22T03:40:59.822Z,32.35
2022-12-22T03:43:47.233Z,29.17
2022-12-22T03:46:17.372Z,30.15
2022-12-22T03:49:06.875Z,29.38
2022-12-22T03:51:35.507Z,25.10
2022-12-22T03:54:04.737Z,28.77
2022-12-22T03:56:33.893Z,27.20
2022-12-22T03:59:02.068Z,26.13
2022-12-22T04:01:30.563Z,27.02
2022-12-22T04:03:59.267Z,23.80
2022-12-22T04:06:27.582Z,25.60
2022-12-22T04:08:55.513Z,24.48
2022-12-22T04:11:41.769Z,27.73
2022-12-22T04:14:10.920Z,24.85
2022-12-22T04:16:39.145Z,24.50
2022-12-22T04:19:08.716Z,24.58
2022-12-22T04:21:37.470Z,26.92
2022-12-22T04:24:06.265Z,22.58
2022-12-22T04:26:35.669Z,25.30
2022-12-22T04:29:03.860Z,27.77
2022-12-22T04:31:32.107Z,27.45
2022-12-22T04:34:00.186Z,26.38
2022-12-22T04:36:29.058Z,28.52
2022-12-22T04:38:57.018Z,31.73
2022-12-22T04:41:25.028Z,30.98
2022-12-22T04:43:53.446Z,26.30
2022-12-22T04:46:21.425Z,28.80
2022-12-22T04:48:53.136Z,28.80
2022-12-22T04:51:25.045Z,28.92
2022-12-22T04:53:53.888Z,27.05
2022-12-22T04:56:21.847Z,24.90
2022-12-22T04:58:50.272Z,25.50
2022-12-22T05:01:19.166Z,27.35
2022-12-22T05:03:48.428Z,22.45
2022-12-22T05:06:17.014Z,22.17
2022-12-22T05:08:45.414Z,25.45
2022-12-22T05:11:13.372Z,21.77
2022-12-22T05:13:41.396Z,23.40
2022-12-22T05:16:15.193Z,22.25
2022-12-22T05:18:46.461Z,23.85
2022-12-22T05:21:21.168Z,22.73
2022-12-22T05:23:50.568Z,25.45
2022-12-22T05:26:19.903Z,30.60
2022-12-22T05:28:48.653Z,24.70
2022-12-22T05:31:21.189Z,26.85
2022-12-22T05:33:49.881Z,24.00
2022-12-22T05:36:18.242Z,26.25
2022-12-22T05:38:46.676Z,20.55
2022-12-22T05:41:14.891Z,21.00
2022-12-22T05:43:43.366Z,19.17
2022-12-22T05:46:12.411Z,23.75
2022-12-22T05:48:41.054Z,23.50
2022-12-22T05:51:10.948Z,52.83
2022-12-22T05:53:40.060Z,27.23
2022-12-22T05:56:08.611Z,27.48
2022-12-22T05:58:39.280Z,25.45
2022-12-22T06:01:07.822Z,17.70
2022-12-22T06:03:36.003Z,21.75
2022-12-22T06:06:05.390Z,25.38
2022-12-22T06:08:33.777Z,24.88
2022-12-22T06:11:01.786Z,28.13
2022-12-22T06:13:29.710Z,87.78
2022-12-22T06:15:57.688Z,42.50
2022-12-22T06:18:26.988Z,42.17
2022-12-22T06:20:54.968Z,40.35
2022-12-22T06:23:23.784Z,35.95
2022-12-22T06:26:01.936Z,24.13
2022-12-22T06:28:31.308Z,25.65
2022-12-22T06:30:59.888Z,27.10
2022-12-22T06:33:27.937Z,23.15
2022-12-22T06:35:58.834Z,27.77
2022-12-22T06:38:28.745Z,29.17
2022-12-22T06:40:57.139Z,32.92
2022-12-22T06:43:26.066Z,29.45
2022-12-22T06:45:54.568Z,27.23
2022-12-22T06:48:22.899Z,27.58
2022-12-22T06:50:50.929Z,33.33
2022-12-22T06:53:19.414Z,24.58
2022-12-22T06:55:47.944Z,27.20
2022-12-22T06:58:15.902Z,30.42
2022-12-22T07:00:48.620Z,29.95
2022-12-22T07:03:17.397Z,30.52
2022-12-22T07:05:45.786Z,32.13
2022-12-22T07:08:14.256Z,34.30
2022-12-22T07:10:58.060Z,36.75
2022-12-22T07:13:29.927Z,37.15
2022-12-22T07:16:01.121Z,29.92
2022-12-22T07:18:35.402Z,29.13
2022-12-22T07:21:07.177Z,24.05
2022-12-22T07:23:35.676Z,33.55
2022-12-22T07:26:04.861Z,30.88
2022-12-22T07:28:37.353Z,25.45
2022-12-22T07:31:07.128Z,25.03
2022-12-22T07:33:36.218Z,23.15
2022-12-22T07:36:22.539Z,25.52
2022-12-22T07:39:09.001Z,26.90
2022-12-22T07:41:57.338Z,38.53
2022-12-22T07:44:25.899Z,31.50
2022-12-22T07:46:54.027Z,41.53
2022-12-22T07:49:41.261Z,37.05
2022-12-22T07:52:09.942Z,31.73
2022-12-22T07:54:41.734Z,34.92
2022-12-22T07:57:11.013Z,34.35
2022-12-22T07:59:39.092Z,38.22
2022-12-22T08:02:11.840Z,29.60
2022-12-22T08:04:41.021Z,43.95
2022-12-22T08:07:09.141Z,29.27
2022-12-22T08:09:37.896Z,29.75
2022-12-22T08:12:06.485Z,33.58
2022-12-22T08:14:34.975Z,33.08
2022-12-22T08:17:04.219Z,37.45
2022-12-22T08:19:51.459Z,36.80
2022-12-22T08:22:19.708Z,32.83
2022-12-22T08:25:06.543Z,30.38
2022-12-22T08:27:40.715Z,28.35
2022-12-22T08:30:10.129Z,27.83
2022-12-22T08:32:41.023Z,31.88
2022-12-22T08:35:28.979Z,28.08
2022-12-22T08:37:57.077Z,27.35
2022-12-22T08:40:45.774Z,24.48
2022-12-22T08:43:15.083Z,23.00
2022-12-22T08:45:43.495Z,23.27
2022-12-22T08:48:11.582Z,22.90
2022-12-22T08:50:40.219Z,27.80
2022-12-22T08:53:29.632Z,27.35
2022-12-22T08:55:58.051Z,29.02
2022-12-22T08:58:26.334Z,38.88
2022-12-22T09:00:54.573Z,31.17
2022-12-22T09:03:23.090Z,51.90
2022-12-22T09:05:51.217Z,40.03
2022-12-22T09:08:19.596Z,45.05
2022-12-22T09:10:47.787Z,32.13
2022-12-22T09:13:16.255Z,24.20
2022-12-22T09:15:44.313Z,24.67
2022-12-22T09:18:12.904Z,22.38
2022-12-22T09:20:41.287Z,29.35
2022-12-22T09:23:10.355Z,30.02
2022-12-22T09:25:38.938Z,28.35
2022-12-22T09:28:08.519Z,28.88
2022-12-22T09:30:36.440Z,32.30
2022-12-22T09:33:04.964Z,28.67
2022-12-22T09:35:33.655Z,29.65
2022-12-22T09:38:02.316Z,24.60
2022-12-22T09:40:32.749Z,18.27
2022-12-22T09:43:01.278Z,19.25
2022-12-22T09:45:29.470Z,17.83
2022-12-22T09:47:58.389Z,12.30
2022-12-22T09:50:28.061Z,12.68
2022-12-22T09:53:03.519Z,12.13
2022-12-22T09:55:44.196Z,14.20
2022-12-22T09:58:26.640Z,14.73
2022-12-22T10:01:18.523Z,12.80
2022-12-22T10:03:58.260Z,21.10
2022-12-22T10:06:36.806Z,20.05
2022-12-22T10:09:48.107Z,21.90
2022-12-22T10:12:16.072Z,24.43
2022-12-22T10:14:48.212Z,22.88
2022-12-22T10:17:23.220Z,22.80
2022-12-22T10:19:54.003Z,22.67
2022-12-22T10:22:32.267Z,24.55
2022-12-22T10:25:03.806Z,26.83
2022-12-22T10:27:42.958Z,21.95
2022-12-22T10:30:24.988Z,23.15
2022-12-22T10:33:03.757Z,22.75
2022-12-22T10:35:49.487Z,20.73
2022-12-22T10:38:31.147Z,25.10
2022-12-22T10:41:20.452Z,20.10
2022-12-22T10:44:16.231Z,22.35
2022-12-22T10:46:49.321Z,22.10
2022-12-22T10:49:30.483Z,20.33
2022-12-22T10:52:29.614Z,19.65
2022-12-22T10:55:21.886Z,15.48
2022-12-22T10:57:50.699Z,14.95
2022-12-22T11:00:29.192Z,12.27
2022-12-22T11:03:00.461Z,10.15
2022-12-22T11:05:30.218Z,11.23
2022-12-22T11:08:07.442Z,12.38
2022-12-22T11:10:46.371Z,12.02
2022-12-22T11:13:53.548Z,15.02
2022-12-22T11:16:41.663Z,11.48
2022-12-22T11:19:27.826Z,11.95
2022-12-22T11:22:26.830Z,8.65
2022-12-22T11:25:05.951Z,6.50
2022-12-22T11:27:46.935Z,6.43
2022-12-22T11:30:19.372Z,6.20
2022-12-22T11:32:59.639Z,8.52
2022-12-22T11:36:01.333Z,8.18
2022-12-22T11:38:37.876Z,7.85
2022-12-22T11:41:37.252Z,6.28
2022-12-22T11:44:08.436Z,15.50
2022-12-22T11:46:46.601Z,9.45
2022-12-22T11:49:43.621Z,11.38
2022-12-22T11:52:17.592Z,8.40
2022-12-22T11:55:22.528Z,11.35
2022-12-22T11:58:16.279Z,12.20
2022-12-22T12:03:51.358Z,17.15
2022-12-22T12:06:35.027Z,16.48
2022-12-22T12:09:29.061Z,17.20
2022-12-22T12:12:05.332Z,16.65
2022-12-22T12:14:48.376Z,13.98
2022-12-22T12:17:17.171Z,10.73
2022-12-22T12:20:36.731Z,10.77
2022-12-22T12:23:28.873Z,13.25
2022-12-22T12:26:31.379Z,12.23
2022-12-22T12:29:37.642Z,9.43
2022-12-22T12:32:17.117Z,8.38
2022-12-22T12:34:50.266Z,8.85
2022-12-22T12:40:30.308Z,8.60
2022-12-22T12:43:00.130Z,9.18
2022-12-22T12:45:43.930Z,8.13
2022-12-22T12:48:39.354Z,9.27
2022-12-22T12:51:49.712Z,7.43
2022-12-22T12:54:33.066Z,6.85
2022-12-22T12:57:03.715Z,9.75
2022-12-22T12:59:41.729Z,10.60
2022-12-22T13:02:28.489Z,11.13
2022-12-22T13:05:14.767Z,13.88
2022-12-22T13:08:18.494Z,9.00
2022-12-22T13:10:56.059Z,11.77
2022-12-22T13:13:25.162Z,11.30
2022-12-22T13:16:02.448Z,19.38
2022-12-22T13:18:49.879Z,21.20
2022-12-22T13:27:14.259Z,24.73
2022-12-22T13:29:45.836Z,34.08
2022-12-22T13:30:51.032Z,24.98
2022-12-22T13:32:26.127Z,32.10
2022-12-22T13:35:31.408Z,31.10
2022-12-22T13:38:01.217Z,26.38
2022-12-22T13:40:49.490Z,25.77
2022-12-22T13:43:20.388Z,23.27
2022-12-22T13:45:55.566Z,26.33
2022-12-22T13:48:44.765Z,22.67
2022-12-22T13:51:29.625Z,20.05
2022-12-22T13:54:10.852Z,19.85
2022-12-22T13:56:46.264Z,17.38
2022-12-22T13:59:35.708Z,15.57
2022-12-22T14:02:10.215Z,16.10
2022-12-22T14:04:41.716Z,22.20
2022-12-22T14:07:20.599Z,17.90
2022-12-22T14:09:50.304Z,21.08
2022-12-22T14:12:23.553Z,23.10
2022-12-22T14:17:35.066Z,22.10
2022-12-22T14:20:36.001Z,21.98
2022-12-22T14:23:07.530Z,20.02
2022-12-22T14:25:42.207Z,29.35
2022-12-22T14:28:43.323Z,30.42
2022-12-22T14:31:13.277Z,31.52
2022-12-22T14:33:52.275Z,43.53
2022-12-22T14:36:25.731Z,34.08
2022-12-22T14:38:57.389Z,41.63
2022-12-22T14:42:01.841Z,35.97
2022-12-22T14:44:37.963Z,40.55
2022-12-22T14:47:18.501Z,39.33
2022-12-22T14:49:46.980Z,45.22
2022-12-22T14:52:21.173Z,44.90
2022-12-22T14:54:52.209Z,50.20
2022-12-22T14:57:46.226Z,43.67
2022-12-22T15:00:39.550Z,43.38
2022-12-22T15:03:33.280Z,45.83
2022-12-22T15:06:30.267Z,47.17
2022-12-22T15:09:13.492Z,45.75
2022-12-22T15:12:02.052Z,50.42
2022-12-22T15:14:38.424Z,59.88
2022-12-22T15:17:16.892Z,51.38
2022-12-22T15:19:44.987Z,53.60
2022-12-22T15:22:13.630Z,45.17
2022-12-22T15:24:41.649Z,48.45
2022-12-22T15:27:10.056Z,53.80
2022-12-22T15:29:39.253Z,72.65
2022-12-22T15:32:12.953Z,81.50
2022-12-22T15:34:42.564Z,66.80
2022-12-22T15:37:13.242Z,61.85
2022-12-22T15:39:41.840Z,72.53
2022-12-22T15:42:09.758Z,61.53
2022-12-22T15:44:39.212Z,60.45
2022-12-22T15:47:11.209Z,61.47
2022-12-22T15:49:39.711Z,62.95
2022-12-22T15:52:11.169Z,57.40
2022-12-22T15:54:40.066Z,64.43
2022-12-22T15:57:13.300Z,65.28
2022-12-22T15:59:42.202Z,73.93
2022-12-22T16:02:15.807Z,98.05
2022-12-22T16:04:44.447Z,142.05
2022-12-22T16:07:13.282Z,128.98
2022-12-22T16:09:44.544Z,90.38
2022-12-22T16:12:21.404Z,64.65
2022-12-22T16:14:55.609Z,77.22
2022-12-22T16:17:28.082Z,113.78
2022-12-22T16:19:56.139Z,72.70
2022-12-22T16:22:33.737Z,71.38
2022-12-22T16:25:04.132Z,72.20
2022-12-22T16:27:33.375Z,69.05
2022-12-22T16:30:01.741Z,77.13
2022-12-22T16:32:32.522Z,85.78
2022-12-22T16:35:10.867Z,96.75
2022-12-22T16:37:39.663Z,103.20
2022-12-22T16:40:08.415Z,121.43
2022-12-22T16:45:28.887Z,70.57
2022-12-22T16:48:05.844Z,65.90
2022-12-22T16:50:34.206Z,74.85
2022-12-22T16:53:05.390Z,81.35
2022-12-22T16:55:37.682Z,60.67
2022-12-22T16:58:13.536Z,43.78
2022-12-22T17:00:45.914Z,42.67
2022-12-22T17:03:17.343Z,43.95
2022-12-22T17:05:56.451Z,49.85
2022-12-22T17:08:32.248Z,48.35
2022-12-22T17:11:10.061Z,47.72
2022-12-22T17:13:39.984Z,45.17
2022-12-22T17:16:23.572Z,54.50
2022-12-22T17:21:20.785Z,66.15
2022-12-22T17:23:52.496Z,77.72
2022-12-22T17:26:24.936Z,79.53
2022-12-22T17:28:53.986Z,110.53
2022-12-22T17:31:23.358Z,81.72
2022-12-22T17:33:51.945Z,87.47
2022-12-22T17:36:40.332Z,108.63
2022-12-22T17:39:17.186Z,131.98
2022-12-22T17:41:49.037Z,129.55
2022-12-22T17:47:42.693Z,146.73
2022-12-22T17:50:14.330Z,114.50
2022-12-22T17:52:44.695Z,130.68
2022-12-22T17:56:05.386Z,114.45
2022-12-22T17:58:15.990Z,103.03
2022-12-22T18:01:25.921Z,91.93
2022-12-22T18:03:55.446Z,92.65
2022-12-22T18:06:27.881Z,83.53
2022-12-22T18:08:57.194Z,80.38
2022-12-22T18:11:25.748Z,81.15
2022-12-22T18:13:57.443Z,89.22
2022-12-22T18:16:25.725Z,142.50
2022-12-22T18:18:54.070Z,117.32
2022-12-22T18:21:25.029Z,104.53
2022-12-22T18:23:53.363Z,105.38
2022-12-22T18:26:27.712Z,109.20
2022-12-22T18:28:57.237Z,117.88
2022-12-22T18:31:26.292Z,142.68
2022-12-22T18:33:55.196Z,118.82
2022-12-22T18:36:29.867Z,125.10
2022-12-22T18:39:00.721Z,124.53
2022-12-22T18:41:34.824Z,135.93
2022-12-22T18:44:03.346Z,134.95
2022-12-22T18:46:31.992Z,167.25
2022-12-22T18:49:05.339Z,146.90
2022-12-22T18:51:34.820Z,131.18
2022-12-22T18:54:03.683Z,140.07
2022-12-22T18:56:32.079Z,122.40
2022-12-22T18:59:00.222Z,116.13
2022-12-22T19:01:29.267Z,121.68
2022-12-22T19:03:58.951Z,125.13
2022-12-22T19:06:27.604Z,123.43
2022-12-22T19:08:56.406Z,95.80
2022-12-22T19:11:28.075Z,105.15
2022-12-22T19:13:56.475Z,106.88
2022-12-22T19:16:27.830Z,113.78
2022-12-22T19:18:58.026Z,89.57
2022-12-22T19:21:26.502Z,96.47
2022-12-22T19:23:54.601Z,89.05
2022-12-22T19:26:28.244Z,84.80
2022-12-22T19:29:00.753Z,80.47
2022-12-22T19:31:34.576Z,82.82
2022-12-22T19:34:12.797Z,93.82
2022-12-22T19:36:40.985Z,88.75
2022-12-22T19:39:08.946Z,98.88
2022-12-22T19:41:53.672Z,98.38
2022-12-22T19:44:31.220Z,166.82
2022-12-22T19:47:02.085Z,221.45
2022-12-22T19:49:30.327Z,297.52
2022-12-22T19:51:59.231Z,140.25
2022-12-22T19:54:28.477Z,174.40
2022-12-22T19:56:57.127Z,146.98
2022-12-22T19:59:40.244Z,142.05
2022-12-22T20:02:26.635Z,149.77
2022-12-22T20:04:55.617Z,165.40
2022-12-22T20:07:26.801Z,174.10
2022-12-22T20:09:55.241Z,152.07
2022-12-22T20:12:33.314Z,140.75
2022-12-22T20:15:05.578Z,126.70
2022-12-22T20:17:34.287Z,149.63
2022-12-22T20:20:02.290Z,189.40
2022-12-22T20:22:56.875Z,161.35
2022-12-22T20:25:28.620Z,157.88
2022-12-22T20:27:57.483Z,102.43
2022-12-22T20:30:49.421Z,94.03
2022-12-22T20:33:23.035Z,100.68
2022-12-22T20:35:53.306Z,95.43
2022-12-22T20:38:42.068Z,84.90
2022-12-22T20:41:10.876Z,84.22
2022-12-22T20:43:39.342Z,86.63
2022-12-22T20:46:26.081Z,86.78
2022-12-22T20:48:57.166Z,87.95
2022-12-22T20:51:29.075Z,106.70
2022-12-22T20:53:58.291Z,98.30
2022-12-22T20:56:36.102Z,91.53
2022-12-22T20:59:24.407Z,97.30
2022-12-22T21:01:53.404Z,95.10
2022-12-22T21:04:22.428Z,92.20
2022-12-22T21:06:53.345Z,77.20
2022-12-22T21:09:23.292Z,76.18
2022-12-22T21:11:51.333Z,73.60
2022-12-22T21:14:19.276Z,70.28
2022-12-22T21:16:48.956Z,62.63
2022-12-22T21:19:18.505Z,52.80
2022-12-22T21:21:47.286Z,58.20
2022-12-22T21:24:15.850Z,54.17
2022-12-22T21:26:55.465Z,58.95
2022-12-22T21:29:25.447Z,60.10
2022-12-22T21:31:53.591Z,47.13
2022-12-22T21:34:22.740Z,53.65
2022-12-22T21:36:59.349Z,49.70
2022-12-22T21:39:27.232Z,58.88
2022-12-22T21:42:02.013Z,78.78
2022-12-22T21:44:31.699Z,77.05
2022-12-22T21:47:00.851Z,79.65
2022-12-22T21:49:31.594Z,79.88
2022-12-22T21:52:00.271Z,69.40
2022-12-22T21:54:28.750Z,90.47
2022-12-22T21:56:57.221Z,74.18
2022-12-22T21:59:25.969Z,74.00
2022-12-22T22:01:56.560Z,57.15
2022-12-22T22:04:25.314Z,55.97
2022-12-22T22:06:53.845Z,50.50
2022-12-22T22:09:21.853Z,44.03
2022-12-22T22:12:09.223Z,42.40
2022-12-22T22:14:37.691Z,41.55
2022-12-22T22:17:06.588Z,38.33
2022-12-22T22:19:34.632Z,40.72
2022-12-22T22:22:03.708Z,55.47
2022-12-22T22:24:31.823Z,56.20
2022-12-22T22:26:59.953Z,50.30
2022-12-22T22:29:28.154Z,57.13
2022-12-22T22:31:56.616Z,61.60
2022-12-22T22:34:24.815Z,61.35
2022-12-22T22:36:52.972Z,67.50
2022-12-22T22:39:23.488Z,49.67
2022-12-22T22:41:51.883Z,43.88
2022-12-22T22:44:20.229Z,37.55
2022-12-22T22:46:48.218Z,38.97
2022-12-22T22:49:16.279Z,36.47
2022-12-22T22:51:44.722Z,43.10
2022-12-22T22:54:13.323Z,46.05
2022-12-22T22:56:42.274Z,45.17
2022-12-22T22:59:36.312Z,36.05
2022-12-22T23:02:05.356Z,37.33
2022-12-22T23:04:34.222Z,34.33
2022-12-22T23:07:02.613Z,33.75
2022-12-22T23:09:31.163Z,32.88
2022-12-22T23:11:59.225Z,37.08
2022-12-22T23:14:27.233Z,32.65
2022-12-22T23:16:55.963Z,35.08
2022-12-22T23:19:24.961Z,40.17
2022-12-22T23:21:52.989Z,43.67
2022-12-22T23:24:21.610Z,41.58
2022-12-22T23:26:49.653Z,42.80
2022-12-22T23:29:17.654Z,42.03
2022-12-22T23:31:46.948Z,39.28
2022-12-22T23:34:15.206Z,45.20
2022-12-22T23:36:43.665Z,35.33
2022-12-22T23:39:11.628Z,36.00
2022-12-22T23:41:39.889Z,35.28
2022-12-22T23:44:08.187Z,36.00
2022-12-22T23:46:37.817Z,36.08
2022-12-22T23:49:06.508Z,36.85
2022-12-22T23:51:34.490Z,37.28
2022-12-22T23:54:02.893Z,35.75
2022-12-22T23:56:31.293Z,39.40
2022-12-22T23:58:59.899Z,38.30
